Time;durP1;ratioP1;P1;durP2;ratioP2;P2;SDS_P1;SDS_P2;PMS_P1;PMS_P2;Temp;Humidity;BMP_temperature;BMP_pressure;BME280_temperature;BME280_humidity;BME280_pressure;Samples;Min_cycle;Max_cycle;Signal;HPM_P1;HPM_P2
2023/03/02 00:04:38;;;;;;;5.95;2.72;;;10.40;86.60;;;;;;10876134;32;20353;-74
2023/03/02 00:10:41;;;;;;;3.25;2.15;;;10.40;86.60;;;;;;10827008;33;20019;-74
2023/03/02 00:16:43;;;;;;;3.50;2.70;;;10.50;86.60;;;;;;10821768;33;20024;-73
2023/03/02 00:22:59;;;;;;;3.72;2.58;;;10.50;86.40;;;;;;10878973;27;20436;-73
2023/03/02 00:29:03;;;;;;;6.78;2.67;;;10.40;86.40;;;;;;10825810;33;20039;-73
2023/03/02 00:35:06;;;;;;;4.25;2.58;;;10.30;86.40;;;;;;10825673;33;20028;-73
2023/03/02 00:41:09;;;;;;;3.58;2.75;;;10.30;86.70;;;;;;10824312;33;20074;-74
2023/03/02 00:47:13;;;;;;;4.87;3.17;;;10.30;86.50;;;;;;10824663;33;20024;-74
2023/03/02 00:53:16;;;;;;;4.18;2.53;;;10.30;86.50;;;;;;10874941;32;20040;-74
2023/03/02 00:59:31;;;;;;;3.30;2.12;;;10.30;86.40;;;;;;10831715;33;20019;-75
2023/03/02 01:05:36;;;;;;;2.65;2.20;;;10.30;86.20;;;;;;10882316;32;20020;-74
2023/03/02 01:11:38;;;;;;;1.77;1.45;;;10.30;86.20;;;;;;10830121;33;20100;-73
2023/03/02 01:17:42;;;;;;;1.65;1.17;;;10.30;86.10;;;;;;10829977;33;20398;-73
2023/03/02 01:23:44;;;;;;;2.97;2.00;;;10.30;86.30;;;;;;10830105;33;20066;-73
2023/03/02 01:29:47;;;;;;;4.53;2.37;;;10.40;86.30;;;;;;10830989;33;20042;-73
2023/03/02 01:35:49;;;;;;;4.05;2.00;;;10.40;86.30;;;;;;10830759;33;20338;-73
2023/03/02 01:41:52;;;;;;;2.70;1.65;;;10.20;86.40;;;;;;10829260;33;20016;-73
2023/03/02 01:47:54;;;;;;;1.15;0.88;;;10.30;86.50;;;;;;10880223;32;20062;-73
2023/03/02 01:54:05;;;;;;;2.10;1.27;;;10.20;86.60;;;;;;10829054;33;20020;-73
2023/03/02 02:00:10;;;;;;;2.47;1.20;;;10.40;86.80;;;;;;10828884;33;20020;-73
2023/03/02 02:06:23;;;;;;;3.62;1.87;;;10.40;86.60;;;;;;10828532;32;20038;-73
2023/03/02 02:12:25;;;;;;;2.97;2.15;;;10.40;86.50;;;;;;10829052;33;20016;-73
2023/03/02 02:18:27;;;;;;;2.92;1.37;;;10.30;86.30;;;;;;10829536;33;20395;-73
2023/03/02 02:24:40;;;;;;;2.05;1.70;;;10.20;86.30;;;;;;10828309;33;20028;-74
2023/03/02 02:30:43;;;;;;;1.40;1.30;;;10.10;86.40;;;;;;10829132;33;20050;-74
2023/03/02 02:36:48;;;;;;;2.15;1.25;;;9.90;86.40;;;;;;10879284;32;20073;-74
2023/03/02 02:42:52;;;;;;;2.80;1.83;;;9.80;86.50;;;;;;10878671;32;20055;-74
2023/03/02 02:48:54;;;;;;;1.77;1.27;;;9.80;86.60;;;;;;10827911;33;20036;-73
2023/03/02 02:54:58;;;;;;;4.18;1.00;;;9.80;86.40;;;;;;10865424;32;20066;-73
2023/03/02 03:01:00;;;;;;;1.33;1.20;;;9.80;86.30;;;;;;10827666;33;20394;-73
2023/03/02 03:07:05;;;;;;;2.28;1.42;;;9.70;86.30;;;;;;10828048;33;20054;-73
2023/03/02 03:13:11;;;;;;;3.47;1.80;;;9.70;86.40;;;;;;10827388;33;20024;-73
2023/03/02 03:19:21;;;;;;;1.23;1.10;;;9.80;86.30;;;;;;10826544;32;20011;-72
2023/03/02 03:25:25;;;;;;;2.58;1.55;;;9.80;86.10;;;;;;10874847;32;20035;-72
2023/03/02 03:31:28;;;;;;;2.95;1.83;;;9.80;86.00;;;;;;10825664;33;20082;-73
2023/03/02 03:37:31;;;;;;;3.37;2.00;;;9.70;86.20;;;;;;10877176;32;20058;-73
2023/03/02 03:43:34;;;;;;;2.25;1.67;;;9.70;86.20;;;;;;10823755;33;20028;-73
2023/03/02 03:49:36;;;;;;;1.70;1.45;;;9.50;86.40;;;;;;10825824;33;20040;-73
2023/03/02 03:55:39;;;;;;;2.55;1.80;;;9.40;86.50;;;;;;10826195;33;20020;-74
2023/03/02 04:01:44;;;;;;;8.05;2.10;;;9.40;86.60;;;;;;10876004;32;20036;-74
2023/03/02 04:07:47;;;;;;;6.55;2.15;;;9.60;86.60;;;;;;10825741;33;20023;-74
2023/03/02 04:13:49;;;;;;;4.57;1.90;;;9.70;86.30;;;;;;10825037;33;20024;-74
2023/03/02 04:19:51;;;;;;;1.25;1.00;;;9.70;86.00;;;;;;10821594;33;20063;-73
2023/03/02 04:25:54;;;;;;;1.08;0.93;;;9.50;86.30;;;;;;10821457;33;20051;-74
2023/03/02 04:31:59;;;;;;;1.85;1.52;;;9.50;86.20;;;;;;10824323;32;20024;-74
2023/03/02 04:38:01;;;;;;;1.73;1.23;;;9.40;86.30;;;;;;10824499;33;20020;-72
2023/03/02 04:44:04;;;;;;;2.90;1.62;;;9.50;85.90;;;;;;10824018;33;20058;-72
2023/03/02 04:50:07;;;;;;;3.62;2.33;;;9.50;86.00;;;;;;10825343;33;20037;-72
2023/03/02 04:56:09;;;;;;;4.12;2.62;;;9.70;85.70;;;;;;10875711;32;20296;-72
2023/03/02 05:02:11;;;;;;;6.30;3.20;;;9.60;85.90;;;;;;10824476;33;20345;-72
2023/03/02 05:08:13;;;;;;;3.83;1.80;;;9.80;85.60;;;;;;10824227;33;20047;-73
2023/03/02 05:14:15;;;;;;;5.65;3.67;;;10.00;85.50;;;;;;10875636;32;20314;-72
2023/03/02 05:20:20;;;;;;;3.03;2.17;;;9.90;85.40;;;;;;10862047;32;20054;-73
2023/03/02 05:26:22;;;;;;;2.53;1.70;;;10.00;85.80;;;;;;10823344;33;20062;-72
2023/03/02 05:32:24;;;;;;;2.80;1.87;;;10.30;86.10;;;;;;10823435;33;20051;-72
2023/03/02 05:38:26;;;;;;;3.67;2.08;;;10.50;85.80;;;;;;10824185;33;20046;-72
2023/03/02 05:44:28;;;;;;;3.67;2.22;;;10.60;85.50;;;;;;10828530;32;20028;-72
2023/03/02 05:50:31;;;;;;;2.65;2.28;;;10.50;85.30;;;;;;10877988;32;20054;-72
2023/03/02 05:56:34;;;;;;;2.78;1.83;;;10.70;85.70;;;;;;10830255;33;20047;-72
2023/03/02 06:02:37;;;;;;;3.65;1.98;;;10.70;85.50;;;;;;10829418;33;20042;-73
2023/03/02 06:08:41;;;;;;;2.72;2.00;;;10.50;85.20;;;;;;10825886;33;20061;-74
2023/03/02 06:14:43;;;;;;;4.10;1.85;;;10.60;84.90;;;;;;10829629;33;20023;-74
2023/03/02 06:20:51;;;;;;;3.50;1.77;;;10.40;84.60;;;;;;10828800;33;20059;-74
2023/03/02 06:26:54;;;;;;;9.20;1.80;;;10.30;84.90;;;;;;10824058;33;20032;-74
2023/03/02 06:32:56;;;;;;;2.60;1.98;;;10.30;84.70;;;;;;10825770;33;20338;-73
2023/03/02 06:38:58;;;;;;;4.87;2.72;;;10.60;84.60;;;;;;10879008;32;20067;-74
2023/03/02 06:45:00;;;;;;;4.50;2.40;;;10.70;84.50;;;;;;10877903;32;20460;-73
2023/03/02 06:51:02;;;;;;;5.35;3.28;;;11.00;84.80;;;;;;10828254;32;20078;-74
2023/03/02 06:57:04;;;;;;;5.10;3.10;;;11.20;85.30;;;;;;10828223;33;20416;-73
2023/03/02 07:03:06;;;;;;;6.15;3.53;;;11.10;85.60;;;;;;10827679;33;20027;-73
2023/03/02 07:09:08;;;;;;;4.03;2.58;;;10.90;85.50;;;;;;10823890;32;20086;-73
2023/03/02 07:15:12;;;;;;;5.43;3.42;;;11.00;85.70;;;;;;10824469;32;20054;-73
2023/03/02 07:21:14;;;;;;;8.13;2.83;;;10.90;85.60;;;;;;10816318;32;20032;-74
2023/03/02 07:27:16;;;;;;;6.22;4.68;;;10.90;86.10;;;;;;10789492;33;20028;-74
2023/03/02 07:33:21;;;;;;;7.47;4.65;;;11.00;86.00;;;;;;10790577;33;20442;-73
2023/03/02 07:39:23;;;;;;;6.32;3.62;;;11.00;86.20;;;;;;10789754;33;20051;-73
2023/03/02 07:45:29;;;;;;;6.70;4.43;;;10.80;85.90;;;;;;10789976;33;20059;-73
2023/03/02 07:51:31;;;;;;;4.78;3.58;;;10.90;86.40;;;;;;10789723;33;20047;-74
2023/03/02 07:57:33;;;;;;;5.65;3.50;;;11.00;86.40;;;;;;10788868;33;20016;-74
2023/03/02 08:03:35;;;;;;;12.43;3.92;;;10.90;86.20;;;;;;10785126;33;20032;-74
2023/03/02 08:09:39;;;;;;;6.12;3.72;;;11.00;86.10;;;;;;10788646;33;20029;-73
2023/03/02 08:15:41;;;;;;;6.95;3.80;;;10.80;85.50;;;;;;10788906;33;20020;-73
2023/03/02 08:21:43;;;;;;;6.00;3.60;;;10.70;85.00;;;;;;10679746;27;7656957;-73
2023/03/02 08:27:45;;;;;;;5.53;3.45;;;10.80;85.70;;;;;;10980424;32;20053;-73
2023/03/02 08:33:53;;;;;;;6.82;4.57;;;11.00;86.50;;;;;;10979060;32;20022;-73
2023/03/02 08:39:54;;;;;;;8.25;5.20;;;11.00;85.80;;;;;;10978884;32;20041;-73
2023/03/02 08:45:57;;;;;;;9.05;4.47;;;11.00;86.20;;;;;;10978069;32;20050;-73
2023/03/02 08:51:59;;;;;;;5.43;4.05;;;10.90;85.30;;;;;;10965757;32;20104;-73
2023/03/02 08:58:02;;;;;;;6.18;4.05;;;11.00;85.10;;;;;;10965076;32;20053;-73
2023/03/02 09:04:07;;;;;;;8.70;3.60;;;11.00;85.50;;;;;;10979472;32;20041;-73
2023/03/02 09:10:09;;;;;;;4.25;3.20;;;11.00;85.00;;;;;;10973458;32;20085;-73
2023/03/02 09:16:12;;;;;;;5.75;3.62;;;11.00;84.80;;;;;;10982412;32;20015;-73
2023/03/02 09:22:14;;;;;;;4.47;3.08;;;10.90;84.90;;;;;;10913333;32;20039;-73
2023/03/02 09:28:20;;;;;;;4.35;2.67;;;10.90;85.30;;;;;;10868752;32;20066;-72
2023/03/02 09:34:22;;;;;;;3.55;2.87;;;10.90;85.70;;;;;;10829599;33;20036;-73
2023/03/02 09:40:29;;;;;;;4.43;2.95;;;11.00;85.70;;;;;;10830630;33;20024;-72
2023/03/02 09:46:34;;;;;;;5.30;3.00;;;11.00;86.00;;;;;;10829771;33;20027;-73
2023/03/02 09:53:06;;;;;;;5.95;3.22;;;11.00;86.40;;;;;;10877561;32;20020;-73
2023/03/02 09:59:25;;;;;;;7.57;3.83;;;11.00;85.60;;;;;;10829853;33;20047;-73
2023/03/02 10:05:39;;;;;;;3.78;2.50;;;11.10;85.60;;;;;;10881021;32;20027;-73
2023/03/02 10:11:41;;;;;;;4.32;2.90;;;11.20;86.50;;;;;;10875365;32;20044;-72
2023/03/02 10:18:33;;;;;;;6.62;4.10;;;11.20;86.00;;;;;;10828022;33;20028;-73
2023/03/02 10:24:39;;;;;;;5.87;3.22;;;11.30;85.90;;;;;;10827782;33;20444;-73
2023/03/02 10:30:43;;;;;;;4.93;3.25;;;11.30;86.30;;;;;;10826524;32;20436;-73
2023/03/02 10:36:46;;;;;;;4.47;2.75;;;11.30;85.30;;;;;;10825678;33;20016;-73
2023/03/02 10:42:48;;;;;;;3.37;2.12;;;11.40;85.80;;;;;;10827380;33;20012;-72
2023/03/02 10:49:00;;;;;;;5.32;2.80;;;11.60;85.60;;;;;;10877343;32;20036;-72
2023/03/02 10:55:12;;;;;;;5.32;3.17;;;11.70;85.70;;;;;;10826798;33;20012;-73
2023/03/02 11:01:17;;;;;;;5.30;3.20;;;11.80;85.80;;;;;;10877694;32;20062;-73
2023/03/02 11:07:22;;;;;;;5.55;4.00;;;11.90;86.20;;;;;;10826803;33;20056;-72
2023/03/02 11:13:27;;;;;;;4.55;2.95;;;11.70;85.80;;;;;;10826912;33;20028;-72
2023/03/02 11:19:37;;;;;;;4.25;2.85;;;11.70;86.50;;;;;;10827242;33;20078;-72
2023/03/02 11:25:52;;;;;;;5.70;3.67;;;11.70;86.80;;;;;;10827860;33;20059;-72
2023/03/02 11:32:07;;;;;;;4.35;2.87;;;12.00;86.90;;;;;;10828019;33;20020;-72
2023/03/02 11:38:12;;;;;;;7.62;3.15;;;12.00;87.20;;;;;;10827069;32;20077;-72
2023/03/02 11:44:18;;;;;;;5.80;3.50;;;12.10;87.20;;;;;;10826345;33;20417;-72
2023/03/02 11:50:21;;;;;;;5.20;3.35;;;12.20;87.20;;;;;;10826387;33;20047;-73
2023/03/02 11:56:25;;;;;;;3.83;2.70;;;12.20;87.50;;;;;;10826376;33;20016;-72
2023/03/02 12:02:27;;;;;;;5.50;3.60;;;12.30;87.50;;;;;;10825737;33;20054;-72
2023/03/02 12:08:40;;;;;;;7.20;4.90;;;12.30;87.70;;;;;;10820911;33;20082;-72
2023/03/02 12:14:42;;;;;;;5.82;4.00;;;12.30;87.40;;;;;;10823479;33;20104;-72
2023/03/02 12:20:44;;;;;;;4.70;3.00;;;12.20;88.20;;;;;;10822599;33;20027;-72
2023/03/02 12:26:46;;;;;;;5.85;2.65;;;12.30;88.00;;;;;;10821471;33;20061;-72
2023/03/02 12:33:10;;;;;;;7.85;2.92;;;12.50;87.90;;;;;;10825248;33;20046;-73
2023/03/02 12:39:37;;;;;;;6.12;4.43;;;12.70;87.80;;;;;;10821232;33;20050;-73
2023/03/02 12:46:04;;;;;;;7.32;4.95;;;12.80;87.10;;;;;;10876661;32;20059;-73
2023/03/02 12:52:30;;;;;;;5.95;4.45;;;13.10;86.70;;;;;;10827937;32;20016;-73
2023/03/02 12:58:33;;;;;;;7.18;4.87;;;13.30;85.20;;;;;;10831171;32;20032;-72
2023/03/02 13:04:34;;;;;;;7.32;4.35;;;13.30;83.90;;;;;;10830293;33;20040;-73
2023/03/02 13:10:42;;;;;;;5.97;4.60;;;13.50;84.10;;;;;;10831460;33;20039;-72
2023/03/02 13:16:54;;;;;;;5.93;3.42;;;13.50;84.20;;;;;;10830747;33;20420;-72
2023/03/02 13:22:56;;;;;;;5.68;3.60;;;13.40;84.30;;;;;;10830574;32;20046;-73
2023/03/02 13:29:19;;;;;;;4.70;3.58;;;13.40;84.80;;;;;;10881368;32;20020;-72
2023/03/02 13:35:25;;;;;;;5.40;3.60;;;13.40;84.90;;;;;;10831327;33;20024;-73
2023/03/02 13:41:29;;;;;;;4.57;3.53;;;13.40;84.10;;;;;;10829481;33;20282;-73
2023/03/02 13:47:32;;;;;;;4.30;2.75;;;13.20;82.60;;;;;;10879488;32;20028;-72
2023/03/02 13:53:36;;;;;;;4.82;3.00;;;13.20;82.20;;;;;;10880083;32;20042;-73
2023/03/02 13:59:39;;;;;;;5.07;2.62;;;13.50;83.30;;;;;;10880200;32;20062;-73
2023/03/02 14:05:41;;;;;;;5.80;2.58;;;13.70;82.40;;;;;;10828200;32;20012;-73
2023/03/02 14:11:46;;;;;;;3.92;2.67;;;13.80;82.10;;;;;;10829353;33;20039;-73
2023/03/02 14:17:48;;;;;;;3.37;2.47;;;13.70;81.80;;;;;;10878531;32;20032;-72
2023/03/02 14:23:51;;;;;;;2.65;1.83;;;13.70;82.40;;;;;;10827918;33;20050;-72
2023/03/02 14:29:53;;;;;;;3.80;2.37;;;14.00;83.50;;;;;;10827092;33;20337;-72
2023/03/02 14:35:57;;;;;;;4.45;2.75;;;14.10;83.70;;;;;;10829158;33;20020;-73
2023/03/02 14:41:59;;;;;;;3.90;2.35;;;14.20;84.30;;;;;;10878080;32;20062;-73
2023/03/02 14:48:01;;;;;;;3.53;2.35;;;14.10;84.10;;;;;;10823872;33;20031;-73
2023/03/02 14:54:07;;;;;;;3.62;2.62;;;14.10;84.40;;;;;;10875276;32;20035;-71
2023/03/02 15:00:14;;;;;;;2.45;2.08;;;14.10;84.50;;;;;;10868875;32;20044;-71
2023/03/02 15:06:31;;;;;;;3.45;2.42;;;14.00;84.50;;;;;;10823698;32;20024;-72
2023/03/02 15:12:33;;;;;;;5.65;3.28;;;14.00;84.60;;;;;;10830417;32;20054;-71
2023/03/02 15:18:35;;;;;;;3.95;2.90;;;14.10;84.90;;;;;;10876155;32;20031;-74
2023/03/02 15:24:37;;;;;;;4.45;3.15;;;14.20;84.80;;;;;;10826009;33;20024;-71
2023/03/02 15:30:41;;;;;;;4.65;3.50;;;14.30;84.90;;;;;;10826719;33;20020;-71
2023/03/02 15:36:43;;;;;;;4.43;2.75;;;14.30;84.80;;;;;;10825149;33;20105;-74
2023/03/02 15:43:01;;;;;;;4.70;3.15;;;14.80;85.00;;;;;;10863741;32;20028;-71
2023/03/02 15:49:12;;;;;;;4.68;2.97;;;14.80;85.20;;;;;;10824575;32;20024;-73
2023/03/02 15:55:39;;;;;;;2.20;1.92;;;16.10;84.40;;;;;;10824251;33;20024;-71
2023/03/02 16:01:41;;;;;;;2.60;1.87;;;17.70;81.90;;;;;;10824943;33;20440;-71
2023/03/02 16:07:43;;;;;;;4.05;2.50;;;18.80;80.20;;;;;;10874853;32;20012;-72
2023/03/02 16:13:45;;;;;;;2.85;2.12;;;18.90;79.80;;;;;;10825621;33;20424;-71
2023/03/02 16:19:47;;;;;;;4.25;2.20;;;18.60;81.50;;;;;;10834389;27;20049;-71
2023/03/02 16:25:50;;;;;;;4.93;2.95;;;18.00;82.80;;;;;;10823088;33;20016;-72
2023/03/02 16:31:52;;;;;;;3.15;2.37;;;17.90;83.30;;;;;;10876383;32;20012;-72
2023/03/02 16:37:54;;;;;;;5.07;3.35;;;17.30;84.00;;;;;;10866959;32;20028;-72
2023/03/02 16:43:58;;;;;;;4.32;3.28;;;16.00;86.60;;;;;;10818082;33;20102;-72
2023/03/02 16:50:14;;;;;;;5.03;3.55;;;15.20;88.70;;;;;;10824135;33;20016;-72
2023/03/02 16:56:16;;;;;;;5.75;3.65;;;14.80;89.50;;;;;;10873560;32;20020;-72
2023/03/02 17:02:18;;;;;;;4.47;3.22;;;14.40;89.60;;;;;;10824293;33;20047;-72
2023/03/02 17:08:45;;;;;;;5.93;4.70;;;14.20;89.90;;;;;;10822973;33;20051;-72
2023/03/02 17:14:47;;;;;;;9.20;4.85;;;14.00;89.50;;;;;;10823437;33;20020;-72
2023/03/02 17:20:51;;;;;;;9.20;5.07;;;13.90;89.40;;;;;;10844673;32;20022;-72
2023/03/02 17:26:54;;;;;;;8.75;6.82;;;13.80;89.00;;;;;;10977455;32;20380;-72
2023/03/02 17:32:56;;;;;;;10.05;7.95;;;13.80;88.40;;;;;;10978362;32;20041;-72
2023/03/02 17:38:58;;;;;;;9.32;6.20;;;13.80;87.90;;;;;;10981387;32;20026;-72
2023/03/02 17:45:00;;;;;;;11.27;8.75;;;13.90;87.40;;;;;;10985960;32;20435;-72
2023/03/02 17:51:03;;;;;;;12.32;7.53;;;13.90;87.20;;;;;;10985814;32;20341;-72
2023/03/02 17:57:06;;;;;;;14.87;9.88;;;13.90;86.90;;;;;;10970926;32;20023;-72
2023/03/02 18:03:08;;;;;;;10.98;7.72;;;13.80;86.70;;;;;;10948212;32;20038;-72
2023/03/02 18:09:10;;;;;;;12.25;8.15;;;13.70;86.40;;;;;;10943936;32;20058;-72
2023/03/02 18:15:12;;;;;;;11.18;7.50;;;13.70;86.20;;;;;;10947195;32;20019;-72
2023/03/02 18:21:14;;;;;;;9.18;6.57;;;13.60;86.00;;;;;;10916447;32;20012;-72
2023/03/02 18:27:16;;;;;;;13.00;8.93;;;13.40;85.90;;;;;;10790987;33;20354;-72
2023/03/02 18:33:20;;;;;;;19.52;8.35;;;13.30;85.80;;;;;;10841783;32;20333;-72
2023/03/02 18:39:23;;;;;;;12.10;9.15;;;13.30;85.40;;;;;;10791760;33;20025;-72
2023/03/02 18:45:30;;;;;;;14.52;10.30;;;13.20;85.10;;;;;;10838987;32;20036;-72
2023/03/02 18:52:05;;;;;;;11.43;9.30;;;13.20;84.80;;;;;;10791595;33;20050;-72
2023/03/02 18:58:15;;;;;;;13.20;9.02;;;13.10;84.60;;;;;;10788304;33;20406;-72
2023/03/02 19:04:18;;;;;;;11.12;8.15;;;13.10;84.40;;;;;;10791690;33;20020;-72
2023/03/02 19:10:20;;;;;;;8.35;6.05;;;12.90;84.50;;;;;;10841727;32;20503;-72
2023/03/02 19:16:43;;;;;;;9.15;7.12;;;12.80;84.90;;;;;;10790495;33;20020;-72
2023/03/02 19:22:46;;;;;;;11.07;6.60;;;12.80;85.00;;;;;;10788748;33;20028;-72
2023/03/02 19:28:50;;;;;;;8.05;5.60;;;12.90;85.10;;;;;;10790273;33;20020;-72
2023/03/02 19:34:52;;;;;;;7.00;5.47;;;12.90;85.00;;;;;;10789919;33;20012;-72
2023/03/02 19:40:56;;;;;;;9.23;5.40;;;12.90;85.20;;;;;;10788450;33;20334;-72
2023/03/02 19:46:58;;;;;;;7.43;5.47;;;13.00;85.00;;;;;;10790319;33;20050;-72
2023/03/02 19:53:01;;;;;;;10.30;7.55;;;13.00;84.70;;;;;;10785889;33;20082;-72
2023/03/02 19:59:03;;;;;;;7.53;4.97;;;13.00;84.70;;;;;;10789039;33;20395;-72
2023/03/02 20:05:06;;;;;;;7.60;4.93;;;13.00;84.50;;;;;;10838671;32;20059;-72
2023/03/02 20:11:11;;;;;;;8.55;6.22;;;12.90;84.50;;;;;;10789342;33;20070;-72
2023/03/02 20:17:14;;;;;;;7.00;4.35;;;12.80;84.50;;;;;;10788548;33;20055;-72
2023/03/02 20:23:17;;;;;;;7.35;4.65;;;12.70;84.50;;;;;;10785008;33;20327;-72
2023/03/02 20:29:19;;;;;;;9.15;5.60;;;12.70;84.30;;;;;;10786747;33;20032;-72
2023/03/02 20:35:21;;;;;;;8.02;5.07;;;12.50;84.20;;;;;;10788602;33;20040;-72
2023/03/02 20:41:23;;;;;;;6.62;5.05;;;12.50;84.20;;;;;;10788242;33;20024;-72
2023/03/02 20:47:33;;;;;;;7.55;5.32;;;12.40;83.90;;;;;;10789155;33;20020;-72
2023/03/02 20:53:35;;;;;;;9.07;6.03;;;12.40;83.80;;;;;;10835062;32;20039;-72
2023/03/02 20:59:37;;;;;;;9.52;6.12;;;12.40;83.60;;;;;;10801995;33;20043;-72
2023/03/02 21:05:40;;;;;;;6.90;4.40;;;12.20;83.50;;;;;;10825018;33;20028;-72
2023/03/02 21:11:44;;;;;;;8.23;4.68;;;12.20;83.40;;;;;;10877266;32;20016;-72
2023/03/02 21:17:46;;;;;;;9.43;5.70;;;12.20;83.30;;;;;;10868596;32;20074;-72
2023/03/02 21:23:48;;;;;;;9.93;6.70;;;12.10;83.50;;;;;;10830522;33;20055;-72
2023/03/02 21:29:51;;;;;;;6.62;4.50;;;12.10;83.50;;;;;;10830441;33;20055;-72
2023/03/02 21:35:53;;;;;;;12.50;8.05;;;12.00;83.40;;;;;;10882139;32;20047;-72
2023/03/02 21:41:55;;;;;;;9.95;6.93;;;11.90;83.60;;;;;;10830242;33;20032;-72
2023/03/02 21:47:57;;;;;;;8.60;6.28;;;11.90;83.10;;;;;;10830552;33;20015;-72
2023/03/02 21:54:00;;;;;;;8.43;6.20;;;11.70;83.10;;;;;;10829908;33;20067;-72
2023/03/02 22:00:04;;;;;;;8.05;5.68;;;11.70;83.10;;;;;;10830337;33;20020;-73
2023/03/02 22:06:06;;;;;;;8.68;5.95;;;11.70;83.10;;;;;;10829976;33;20035;-72
2023/03/02 22:12:13;;;;;;;7.80;5.45;;;11.60;82.90;;;;;;10830326;33;20015;-73
2023/03/02 22:18:17;;;;;;;7.70;5.53;;;11.50;83.00;;;;;;10829925;33;20342;-73
2023/03/02 22:24:33;;;;;;;8.77;6.05;;;11.40;82.80;;;;;;10828722;32;20062;-72
2023/03/02 22:30:35;;;;;;;7.68;5.32;;;11.20;82.90;;;;;;10828290;33;20019;-72
2023/03/02 22:36:49;;;;;;;9.88;5.70;;;11.20;82.90;;;;;;10825883;33;20024;-72
2023/03/02 22:42:57;;;;;;;7.35;5.68;;;11.20;82.70;;;;;;10861720;32;20064;-72
2023/03/02 22:49:09;;;;;;;9.50;5.37;;;11.10;82.60;;;;;;10828974;33;20037;-72
2023/03/02 22:55:54;;;;;;;13.07;9.57;;;11.10;82.50;;;;;;10828325;33;20490;-72
2023/03/02 23:02:00;;;;;;;7.62;5.47;;;11.00;82.40;;;;;;10642458;33;20052;-72
2023/03/02 23:08:22;;;;;;;9.50;6.62;;;10.90;82.40;;;;;;10642404;33;20408;-73
2023/03/02 23:14:28;;;;;;;13.30;7.95;;;10.90;82.40;;;;;;10642545;33;20340;-72
2023/03/02 23:20:32;;;;;;;10.23;6.75;;;10.90;82.20;;;;;;10642418;33;20057;-72
2023/03/02 23:26:35;;;;;;;9.55;7.43;;;10.90;82.10;;;;;;10641298;33;20570;-72
2023/03/02 23:32:37;;;;;;;14.20;8.95;;;10.80;82.00;;;;;;10788386;33;20391;-72
2023/03/02 23:38:39;;;;;;;14.70;9.55;;;10.70;82.00;;;;;;10876881;32;20029;-72
2023/03/02 23:44:41;;;;;;;9.95;6.60;;;10.60;81.90;;;;;;10823731;33;20081;-72
2023/03/02 23:50:44;;;;;;;17.08;11.90;;;10.60;81.70;;;;;;10877568;32;20394;-72
2023/03/02 23:56:46;;;;;;;19.00;13.40;;;10.50;81.30;;;;;;10876075;32;20055;-72
